Eira — OJJP — position and weather

sailwx.info

Track history (hours):
 
Tides and Currents Weather Stations Pressure Air Temp Water Temp Dewpoint Dewpoint Depression Visibility Wind Speed Wind Dir Waves Ship Positions

Eira

Last reported at 2016-Aug-30 08:25 UTC. Time now 2016-Aug-30 09:09 UTC.
Position N 59°41' E 028°25'.

Length 157 m; draft 5.9 m.

Type: Cargo ship. MMSI: 230935000.

Date/timePositionNaut miles runAvg speedWind from/ knotsBaromVisibWave heightAir tempDewpointWater temp
2016-Aug-30 08:25N 59°41' E 028°25'0 0.0
2016-Aug-30 07:25N 59°41' E 028°25'0 0.0
2016-Aug-30 06:28N 59°41' E 028°25'0 0.0
2016-Aug-30 05:28N 59°41' E 028°25'0 0.0
2016-Aug-30 04:31N 59°41' E 028°25'2 1.6
2016-Aug-30 03:33N 59°43' E 028°24'5 5.3
2016-Aug-30 02:33N 59°46' E 028°15'1212.2
2016-Aug-30 01:33N 59°57' E 028°09'1211.6
2016-Aug-30 00:33N 60°08' E 028°03'1111.5
2016-Aug-29 23:33N 60°08' E 027°40'1312.5
2016-Aug-29 22:33N 60°02' E 027°18'1211.9
2016-Aug-29 21:31N 59°58' E 026°55'1212.4
2016-Aug-29 20:31N 59°58' E 026°30'  
2016-Aug-27 01:05N 59°57' E 025°54'1112.6
2016-Aug-27 00:14N 59°59' E 026°16'912.7
2016-Aug-26 23:33N 60°01' E 026°32'1312.8
2016-Aug-26 22:33N 59°60' E 026°58'1212.1
2016-Aug-26 21:33N 60°05' E 027°20'1312.6
2016-Aug-26 20:33N 60°11' E 027°42'2612.4
2016-Aug-26 18:28N 60°28' E 028°21'11 5.5
2016-Aug-26 16:30N 60°37' E 028°34'30 0.8
2016-Aug-25 03:28N 60°16' E 027°53'1314.1
2016-Aug-25 02:33N 60°07' E 027°33'1914.3
2016-Aug-25 01:14N 59°58' E 026°60'912.8
2016-Aug-25 00:33N 60°03' E 026°45'9 9.2
2016-Aug-24 23:33N 60°08' E 026°30'0 0.3
2016-Aug-24 22:33N 60°09' E 026°30'0 0.1
2016-Aug-24 21:32N 60°09' E 026°30'0 0.0
2016-Aug-24 20:32N 60°09' E 026°30'0 0.0
2016-Aug-24 19:32N 60°09' E 026°30'0 0.0
2016-Aug-24 18:33N 60°09' E 026°30'0 0.0
2016-Aug-24 17:33N 60°09' E 026°30'0 0.0
2016-Aug-24 16:29N 60°09' E 026°30'0 0.0
2016-Aug-24 15:23N 60°09' E 026°30'0 0.0
2016-Aug-24 14:33N 60°09' E 026°30'0 0.0
2016-Aug-24 13:30N 60°09' E 026°30'0 0.0
2016-Aug-24 12:32N 60°09' E 026°30'0 0.0
2016-Aug-24 11:33N 60°09' E 026°30'0 0.0
2016-Aug-24 10:33N 60°09' E 026°30'0 0.0
2016-Aug-24 09:33N 60°09' E 026°30'0 0.0
2016-Aug-24 08:32N 60°09' E 026°30'0 0.0
2016-Aug-24 07:32N 60°09' E 026°30'0 0.0
2016-Aug-24 06:32N 60°09' E 026°30'0 0.0
2016-Aug-24 04:33N 60°09' E 026°30'0 0.0
2016-Aug-24 03:32N 60°09' E 026°30'0 0.0
2016-Aug-24 02:32N 60°09' E 026°30'0 0.0
2016-Aug-24 01:32N 60°09' E 026°30'0 0.0
2016-Aug-24 00:32N 60°09' E 026°30'0 0.0
2016-Aug-23 23:32N 60°09' E 026°30'0 0.0
2016-Aug-23 22:33N 60°09' E 026°30'0 0.0
2016-Aug-23 21:32N 60°09' E 026°30'0 0.4
2016-Aug-23 20:33N 60°09' E 026°31'0 0.0
2016-Aug-23 19:32N 60°09' E 026°31'0 0.0
2016-Aug-23 18:32N 60°09' E 026°31'0 0.0
2016-Aug-23 17:32N 60°09' E 026°31'0 0.0
2016-Aug-23 16:29N 60°09' E 026°31'0 0.0
2016-Aug-23 15:32N 60°09' E 026°31'0 0.0
2016-Aug-23 14:29N 60°09' E 026°31'0 0.0
2016-Aug-23 13:33N 60°09' E 026°31'0 0.0
2016-Aug-23 12:29N 60°09' E 026°31'0 0.0
2016-Aug-23 11:32N 60°09' E 026°31'0 0.0
2016-Aug-23 10:32N 60°09' E 026°31'0 0.0
2016-Aug-23 09:33N 60°09' E 026°31'0 0.0
2016-Aug-23 08:32N 60°09' E 026°31'0 0.0
2016-Aug-23 07:33N 60°09' E 026°31'0 0.3
2016-Aug-23 06:33N 60°09' E 026°31'9 9.1
2016-Aug-23 05:33N 60°03' E 026°46'10 9.6
2016-Aug-23 04:33N 59°60' E 027°04'10 9.8
2016-Aug-23 03:29N 60°05' E 027°22'11 9.6
2016-Aug-23 02:20N 60°11' E 027°41'7 9.1
2016-Aug-23 01:33N 60°11' E 027°55'10 9.9
2016-Aug-23 00:33N 60°08' E 028°14'10 9.7
2016-Aug-22 23:33N 60°03' E 028°31'10 9.8
2016-Aug-22 22:33N 60°03' E 028°51'10 9.8
2016-Aug-22 21:33N 60°02' E 029°10'1410.0
2016-Aug-22 20:08N 60°00' E 029°38'610.1
2016-Aug-22 19:33N 59°58' E 029°49'1110.7
2016-Aug-22 18:33N 59°54' E 030°09'1 1.3
2016-Aug-22 17:29N 59°53' E 030°11'0 0.0
2016-Aug-22 16:32N 59°53' E 030°11'0 0.0
2016-Aug-22 15:29N 59°53' E 030°11'0 0.0
2016-Aug-22 14:20N 59°53' E 030°11'0 0.0
2016-Aug-22 13:32N 59°53' E 030°11'0 0.0
2016-Aug-22 12:32N 59°53' E 030°11'0 0.0
2016-Aug-22 11:29N 59°53' E 030°11'0 0.0
2016-Aug-22 10:32N 59°53' E 030°11'0 0.0
2016-Aug-22 09:32N 59°53' E 030°11'0 0.0
2016-Aug-22 08:29N 59°53' E 030°11'0 0.0
2016-Aug-22 07:32N 59°53' E 030°11'0 0.0
2016-Aug-22 06:32N 59°53' E 030°11'0 0.0
2016-Aug-22 05:32N 59°53' E 030°11'0 0.0
2016-Aug-22 04:32N 59°53' E 030°11'0 0.0
2016-Aug-22 03:26N 59°53' E 030°11'0 0.0
2016-Aug-22 02:32N 59°53' E 030°11'0 0.0
2016-Aug-22 01:32N 59°53' E 030°11'0 0.0
2016-Aug-22 00:32N 59°53' E 030°11'0 0.0
2016-Aug-21 23:32N 59°53' E 030°11'0 0.0
2016-Aug-21 22:32N 59°53' E 030°11'0 0.0
2016-Aug-21 21:32N 59°53' E 030°11'0 0.0
2016-Aug-21 20:32N 59°53' E 030°11'0 0.0
2016-Aug-21 19:32N 59°53' E 030°11'0 0.0
2016-Aug-21 18:32N 59°53' E 030°11'0 0.0
2016-Aug-21 17:32N 59°53' E 030°11'0 0.0
2016-Aug-21 16:32N 59°53' E 030°11'0 0.0
2016-Aug-21 15:32N 59°53' E 030°11'1 0.8
2016-Aug-21 14:33N 59°53' E 030°10'9 9.3
2016-Aug-21 13:33N 59°57' E 029°53'15 2.3
2016-Aug-21 07:13N 60°02' E 029°25'0 0.0
2016-Aug-21 06:22N 60°02' E 029°25'0 0.0
2016-Aug-21 04:04N 60°02' E 029°25'0 0.0
2016-Aug-21 03:19N 60°02' E 029°25'0 0.0
2016-Aug-21 02:31N 60°02' E 029°25'0 0.0
2016-Aug-21 01:31N 60°02' E 029°25'0 0.0
2016-Aug-21 00:31N 60°02' E 029°25'0 0.0
2016-Aug-20 23:31N 60°02' E 029°25'0 0.0
2016-Aug-20 22:31N 60°02' E 029°25'0 0.0
2016-Aug-20 20:16N 60°02' E 029°25'0 0.0
2016-Aug-20 19:04N 60°02' E 029°25'0 0.0
2016-Aug-20 17:28N 60°02' E 029°25'0 0.0
2016-Aug-20 16:31N 60°02' E 029°25'0 0.0
2016-Aug-20 12:14N 60°02' E 029°25'6 8.5
2016-Aug-20 11:28N 60°02' E 029°12'1212.3
2016-Aug-20 10:31N 60°02' E 028°48'1212.3
2016-Aug-20 09:33N 60°03' E 028°25'1212.0
2016-Aug-20 08:34N 60°09' E 028°03'  
Track history (hours):
 
Tides and Currents Weather Stations Pressure Air Temp Water Temp Dewpoint Dewpoint Depression Visibility Wind Speed Wind Dir Waves Ship Positions

Eira

Last reported at 2016-Aug-30 08:25 UTC. Time now 2016-Aug-30 09:09 UTC.
Position N 59°41' E 028°25'.

Length 157 m; draft 5.9 m.

Type: Cargo ship. MMSI: 230935000.

Date/timePositionNaut miles runAvg speedWind from/ knotsBaromVisibWave heightAir tempDewpointWater temp
2016-Aug-30 08:25N 59°41' E 028°25'0 0.0
2016-Aug-30 07:25N 59°41' E 028°25'0 0.0
2016-Aug-30 06:28N 59°41' E 028°25'0 0.0
2016-Aug-30 05:28N 59°41' E 028°25'0 0.0
2016-Aug-30 04:31N 59°41' E 028°25'2 1.6
2016-Aug-30 03:33N 59°43' E 028°24'5 5.3
2016-Aug-30 02:33N 59°46' E 028°15'1212.2
2016-Aug-30 01:33N 59°57' E 028°09'1211.6
2016-Aug-30 00:33N 60°08' E 028°03'1111.5
2016-Aug-29 23:33N 60°08' E 027°40'1312.5
2016-Aug-29 22:33N 60°02' E 027°18'1211.9
2016-Aug-29 21:31N 59°58' E 026°55'1212.4
2016-Aug-29 20:31N 59°58' E 026°30'  
2016-Aug-27 01:05N 59°57' E 025°54'1112.6
2016-Aug-27 00:14N 59°59' E 026°16'912.7
2016-Aug-26 23:33N 60°01' E 026°32'1312.8
2016-Aug-26 22:33N 59°60' E 026°58'1212.1
2016-Aug-26 21:33N 60°05' E 027°20'1312.6
2016-Aug-26 20:33N 60°11' E 027°42'2612.4
2016-Aug-26 18:28N 60°28' E 028°21'11 5.5
2016-Aug-26 16:30N 60°37' E 028°34'30 0.8
2016-Aug-25 03:28N 60°16' E 027°53'1314.1
2016-Aug-25 02:33N 60°07' E 027°33'1914.3
2016-Aug-25 01:14N 59°58' E 026°60'912.8
2016-Aug-25 00:33N 60°03' E 026°45'9 9.2
2016-Aug-24 23:33N 60°08' E 026°30'0 0.3
2016-Aug-24 22:33N 60°09' E 026°30'0 0.1
2016-Aug-24 21:32N 60°09' E 026°30'0 0.0
2016-Aug-24 20:32N 60°09' E 026°30'0 0.0
2016-Aug-24 19:32N 60°09' E 026°30'0 0.0
2016-Aug-24 18:33N 60°09' E 026°30'0 0.0
2016-Aug-24 17:33N 60°09' E 026°30'0 0.0
2016-Aug-24 16:29N 60°09' E 026°30'0 0.0
2016-Aug-24 15:23N 60°09' E 026°30'0 0.0
2016-Aug-24 14:33N 60°09' E 026°30'0 0.0
2016-Aug-24 13:30N 60°09' E 026°30'0 0.0
2016-Aug-24 12:32N 60°09' E 026°30'0 0.0
2016-Aug-24 11:33N 60°09' E 026°30'0 0.0
2016-Aug-24 10:33N 60°09' E 026°30'0 0.0
2016-Aug-24 09:33N 60°09' E 026°30'0 0.0
2016-Aug-24 08:32N 60°09' E 026°30'0 0.0
2016-Aug-24 07:32N 60°09' E 026°30'0 0.0
2016-Aug-24 06:32N 60°09' E 026°30'0 0.0
2016-Aug-24 04:33N 60°09' E 026°30'0 0.0
2016-Aug-24 03:32N 60°09' E 026°30'0 0.0
2016-Aug-24 02:32N 60°09' E 026°30'0 0.0
2016-Aug-24 01:32N 60°09' E 026°30'0 0.0
2016-Aug-24 00:32N 60°09' E 026°30'0 0.0
2016-Aug-23 23:32N 60°09' E 026°30'0 0.0
2016-Aug-23 22:33N 60°09' E 026°30'0 0.0
2016-Aug-23 21:32N 60°09' E 026°30'0 0.4
2016-Aug-23 20:33N 60°09' E 026°31'0 0.0
2016-Aug-23 19:32N 60°09' E 026°31'0 0.0
2016-Aug-23 18:32N 60°09' E 026°31'0 0.0
2016-Aug-23 17:32N 60°09' E 026°31'0 0.0
2016-Aug-23 16:29N 60°09' E 026°31'0 0.0
2016-Aug-23 15:32N 60°09' E 026°31'0 0.0
2016-Aug-23 14:29N 60°09' E 026°31'0 0.0
2016-Aug-23 13:33N 60°09' E 026°31'0 0.0
2016-Aug-23 12:29N 60°09' E 026°31'0 0.0
2016-Aug-23 11:32N 60°09' E 026°31'0 0.0
2016-Aug-23 10:32N 60°09' E 026°31'0 0.0
2016-Aug-23 09:33N 60°09' E 026°31'0 0.0
2016-Aug-23 08:32N 60°09' E 026°31'0 0.0
2016-Aug-23 07:33N 60°09' E 026°31'0 0.3
2016-Aug-23 06:33N 60°09' E 026°31'9 9.1
2016-Aug-23 05:33N 60°03' E 026°46'10 9.6
2016-Aug-23 04:33N 59°60' E 027°04'10 9.8
2016-Aug-23 03:29N 60°05' E 027°22'11 9.6
2016-Aug-23 02:20N 60°11' E 027°41'7 9.1
2016-Aug-23 01:33N 60°11' E 027°55'10 9.9
2016-Aug-23 00:33N 60°08' E 028°14'10 9.7
2016-Aug-22 23:33N 60°03' E 028°31'10 9.8
2016-Aug-22 22:33N 60°03' E 028°51'10 9.8
2016-Aug-22 21:33N 60°02' E 029°10'1410.0
2016-Aug-22 20:08N 60°00' E 029°38'610.1
2016-Aug-22 19:33N 59°58' E 029°49'1110.7
2016-Aug-22 18:33N 59°54' E 030°09'1 1.3
2016-Aug-22 17:29N 59°53' E 030°11'0 0.0
2016-Aug-22 16:32N 59°53' E 030°11'0 0.0
2016-Aug-22 15:29N 59°53' E 030°11'0 0.0
2016-Aug-22 14:20N 59°53' E 030°11'0 0.0
2016-Aug-22 13:32N 59°53' E 030°11'0 0.0
2016-Aug-22 12:32N 59°53' E 030°11'0 0.0
2016-Aug-22 11:29N 59°53' E 030°11'0 0.0
2016-Aug-22 10:32N 59°53' E 030°11'0 0.0
2016-Aug-22 09:32N 59°53' E 030°11'0 0.0
2016-Aug-22 08:29N 59°53' E 030°11'0 0.0
2016-Aug-22 07:32N 59°53' E 030°11'0 0.0
2016-Aug-22 06:32N 59°53' E 030°11'0 0.0
2016-Aug-22 05:32N 59°53' E 030°11'0 0.0
2016-Aug-22 04:32N 59°53' E 030°11'0 0.0
2016-Aug-22 03:26N 59°53' E 030°11'0 0.0
2016-Aug-22 02:32N 59°53' E 030°11'0 0.0
2016-Aug-22 01:32N 59°53' E 030°11'0 0.0
2016-Aug-22 00:32N 59°53' E 030°11'0 0.0
2016-Aug-21 23:32N 59°53' E 030°11'0 0.0
2016-Aug-21 22:32N 59°53' E 030°11'0 0.0
2016-Aug-21 21:32N 59°53' E 030°11'0 0.0
2016-Aug-21 20:32N 59°53' E 030°11'0 0.0
2016-Aug-21 19:32N 59°53' E 030°11'0 0.0
2016-Aug-21 18:32N 59°53' E 030°11'0 0.0
2016-Aug-21 17:32N 59°53' E 030°11'0 0.0
2016-Aug-21 16:32N 59°53' E 030°11'0 0.0
2016-Aug-21 15:32N 59°53' E 030°11'1 0.8
2016-Aug-21 14:33N 59°53' E 030°10'9 9.3
2016-Aug-21 13:33N 59°57' E 029°53'15 2.3
2016-Aug-21 07:13N 60°02' E 029°25'0 0.0
2016-Aug-21 06:22N 60°02' E 029°25'0 0.0
2016-Aug-21 04:04N 60°02' E 029°25'0 0.0
2016-Aug-21 03:19N 60°02' E 029°25'0 0.0
2016-Aug-21 02:31N 60°02' E 029°25'0 0.0
2016-Aug-21 01:31N 60°02' E 029°25'0 0.0
2016-Aug-21 00:31N 60°02' E 029°25'0 0.0
2016-Aug-20 23:31N 60°02' E 029°25'0 0.0
2016-Aug-20 22:31N 60°02' E 029°25'0 0.0
2016-Aug-20 20:16N 60°02' E 029°25'0 0.0
2016-Aug-20 19:04N 60°02' E 029°25'0 0.0
2016-Aug-20 17:28N 60°02' E 029°25'0 0.0
2016-Aug-20 16:31N 60°02' E 029°25'0 0.0
2016-Aug-20 12:14N 60°02' E 029°25'6 8.5
2016-Aug-20 11:28N 60°02' E 029°12'1212.3
2016-Aug-20 10:31N 60°02' E 028°48'1212.3
2016-Aug-20 09:33N 60°03' E 028°25'1212.0
2016-Aug-20 08:34N 60°09' E 028°03'  

Dump ship's entire track history